Flight Track Log - Related Links

Times and Time Zones

All times are in EDT time to prevent confusion due to time zone crossing. See the DAL2352 flight status page for this flight to view local times or setup timezone preferences in your user account.


Time Position Orientation Groundspeed Altitude Reporting Facility
EDT Latitude Longitude Course Direction KTS MPH feet Rate Location/Type
Thu 06:25:43 AM 42.7278 -73.8081 180° South 145 167 1,500  Level Boston Center
Thu 06:27:56 AM 42.7075 -73.9206 256° West 200 230 6,000 2,114 Climbing Boston Center
Thu 06:28:00 AM 42.5088 -74.1379 200° South  Level Estimated
Thu 06:28:56 AM 42.7061 -74.0194 269° West 232 267 8,300  Level Boston Center
Thu 06:29:00 AM 42.4284 -74.2493 198° South  Level Estimated
Thu 06:29:56 AM 42.7047 -74.1239 269° West 259 298 11,800  Level Boston Center
Thu 06:30:00 AM 42.3480 -74.3605 180° South  Level Estimated
Thu 06:30:56 AM 42.6683 -74.1936 235° Southwest 254 292 14,100  Level Boston Center
Thu 06:31:00 AM 42.2675 -74.4713 180° South  Level Estimated
Thu 06:31:56 AM 42.5833 -74.1544 161° South 224 258 16,500  Level Boston Center
Thu 06:32:56 AM 42.5067 -74.1242 164° South 294 338 18,200 1,350 Climbing Boston Center
Thu 06:33:56 AM 42.4153 -74.0964 167° South 326 375 19,200 950 Climbing Boston Center
Thu 06:34:56 AM 42.3117 -74.0600 165° South 365 420 20,100 1,000 Climbing Boston Center
Thu 06:35:56 AM 42.2214 -73.9539 139° Southeast 401 461 21,200 1,250 Climbing Boston Center
Thu 06:36:56 AM 42.1439 -73.8178 127° Southeast 420 483 22,600 1,550 Climbing Boston Center
Thu 06:37:56 AM 42.0236 -73.7675 163° South 439 505 24,300 2,500 Climbing Boston Center
Thu 06:38:56 AM 41.9119 -73.7094 159° South 433 498 27,600 2,400 Climbing Boston Center
Thu 06:39:56 AM 41.8042 -73.6489 157° South 428 493 29,100 1,250 Climbing Boston Center
Thu 06:40:56 AM 41.6942 -73.6078 164° South 428 493 30,100 1,050 Climbing Boston Center
Thu 06:41:56 AM 41.5914 -73.6614 201° Southwest 395 455 31,200 857 Climbing Boston Center
Thu 06:42:41 AM 41.5531 -73.7511 240° Southwest 351 404 31,600 800 Climbing New York Center
Thu 06:43:41 AM 41.5633 -73.9097 275° West 330 380 32,600 966 Climbing New York Center
Thu 06:44:39 AM 41.5408 -74.0556 258° West 374 430 33,500 712 Climbing New York Center
Thu 06:45:39 AM 41.4750 -74.1739 233° Southwest 392 451 34,000 250 Climbing New York Center
Thu 06:46:39 AM 41.3925 -74.2886 226° Southwest 409 471 34,000  Level New York Center
Thu 06:47:39 AM 41.3033 -74.4111 226° Southwest 422 486 34,000 -50 Level New York Center
Thu 06:48:39 AM 41.2289 -74.5283 230° Southwest 422 486 33,900  Descending New York Center
Thu 06:49:41 AM 41.1525 -74.6344 226° Southwest 416 479 34,000 50 Climbing New York Center
Thu 06:50:40 AM 41.0758 -74.7511 229° Southwest 416 479 34,000  Level New York Center
Thu 06:51:39 AM 40.9992 -74.8592 227° Southwest 416 479 34,000  Level New York Center
Thu 06:52:39 AM 40.9203 -74.9725 227° Southwest 421 484 34,000  Level New York Center
Thu 06:53:39 AM 40.8433 -75.0831 227° Southwest 421 484 34,000  Level New York Center
Thu 06:54:41 AM 40.7731 -75.1828 227° Southwest 421 484 34,000  Level New York Center
Thu 06:55:40 AM 40.6958 -75.2956 228° Southwest 421 484 34,000  Level New York Center
Thu 06:56:39 AM 40.6206 -75.4081 229° Southwest 426 490 34,000  Level New York Center
Thu 06:57:39 AM 40.5433 -75.5175 227° Southwest 426 490 34,000  Level New York Center
Thu 06:58:40 AM 40.4658 -75.6294 228° Southwest 426 490 34,000  Level New York Center
Thu 06:59:39 AM 40.3881 -75.7414 228° Southwest 426 490 34,000 -50 Level New York Center
Thu 07:00:41 AM 40.3086 -75.8497 226° Southwest 426 490 33,900  Descending New York Center
Thu 07:01:41 AM 40.2031 -75.9264 209° Southwest 402 463 34,000 50 Climbing New York Center
Thu 07:02:40 AM 40.0953 -75.8614 155° Southeast 367 422 34,000  Level New York Center
Thu 07:03:40 AM 39.9925 -75.9244 205° Southwest 385 443 34,000  Level New York Center
Thu 07:04:39 AM 39.9511 -76.0594 248° West 367 422 34,000  Level New York Center
Thu 07:05:39 AM 39.9378 -76.2128 264° West 377 434 34,000  Level New York Center
Thu 07:07:43 AM 39.8061 -76.4800 237° Southwest 416 479 34,000  Level Washington Center
Thu 07:08:44 AM 39.7261 -76.5897 227° Southwest 416 479 34,000  Level Washington Center
Thu 07:09:44 AM 39.6481 -76.7019 228° Southwest 421 484 34,000  Level Washington Center
Thu 07:10:43 AM 39.5719 -76.8111 228° Southwest 416 479 34,000  Level Washington Center
Thu 07:11:44 AM 39.4939 -76.9200 227° Southwest 416 479 34,000  Level Washington Center
Thu 07:12:43 AM 39.4156 -77.0286 227° Southwest 416 479 34,000  Level Washington Center
Thu 07:13:43 AM 39.3369 -77.1400 228° Southwest 416 479 34,000  Level Washington Center
Thu 07:14:44 AM 39.2606 -77.2481 228° Southwest 411 473 34,000  Level Washington Center
Thu 07:15:42 AM 39.1819 -77.3561 227° Southwest 411 473 34,000  Level Washington Center
Thu 07:16:43 AM 39.1031 -77.4667 227° Southwest 411 473 34,000  Level Washington Center
Thu 07:17:44 AM 39.0242 -77.5767 227° Southwest 416 479 34,000  Level Washington Center
Thu 07:18:44 AM 38.9453 -77.6867 227° Southwest 416 479 34,000  Level Washington Center
Thu 07:19:44 AM 38.8642 -77.7964 227° Southwest 416 479 34,000  Level Washington Center
Thu 07:20:45 AM 38.7933 -77.8983 228° Southwest 423 487 34,000  Level Washington Center
Thu 07:21:43 AM 38.7139 -78.0103 228° Southwest 428 493 34,000  Level Washington Center
Thu 07:22:45 AM 38.6367 -78.1167 227° Southwest 428 493 34,000  Level Washington Center
Thu 07:23:45 AM 38.5550 -78.2281 227° Southwest 428 493 34,000  Level Washington Center
Thu 07:24:44 AM 38.4756 -78.3367 227° Southwest 428 493 34,000  Level Washington Center
Thu 07:25:45 AM 38.3958 -78.4422 226° Southwest 428 493 34,000  Level Washington Center
Thu 07:26:45 AM 38.3161 -78.5503 227° Southwest 428 493 34,000  Level Washington Center
Thu 07:27:43 AM 38.2319 -78.6686 228° Southwest 428 493 34,000  Level Washington Center
Thu 07:28:42 AM 38.1583 -78.7686 227° Southwest 428 493 34,000  Level Washington Center
Thu 07:29:44 AM 38.0739 -78.8811 226° Southwest 435 501 34,000  Level Washington Center
Thu 07:30:44 AM 37.9894 -78.9933 226° Southwest 441 507 34,000  Level Washington Center
Thu 07:31:42 AM 37.8942 -79.1181 226° Southwest 441 507 34,000  Level Washington Center
Thu 07:32:43 AM 37.8156 -79.2300 228° Southwest 441 507 34,000  Level Washington Center
Thu 07:33:43 AM 37.7308 -79.3439 227° Southwest 441 507 34,000  Level Washington Center
Thu 07:34:44 AM 37.6436 -79.4603 227° Southwest 447 514 34,000  Level Washington Center
Thu 07:35:42 AM 37.5586 -79.5764 227° Southwest 454 522 34,000  Level Washington Center
Thu 07:36:43 AM 37.4756 -79.6900 227° Southwest 454 522 34,000  Level Washington Center
Thu 07:37:45 AM 37.3781 -79.7944 220° Southwest 454 522 34,000  Level Washington Center
Thu 07:38:42 AM 37.2731 -79.8697 210° Southwest 454 522 34,000  Level Washington Center
Thu 07:39:44 AM 37.1786 -79.9425 212° Southwest 448 516 34,000  Level Washington Center
Thu 07:40:44 AM 37.0733 -80.0225 211° Southwest 443 510 34,000  Level Washington Center
Thu 07:42:30 AM 36.8983 -80.1767 215° Southwest 436 502 34,000  Level Atlanta Center
Thu 07:43:30 AM 36.8108 -80.3078 230° Southwest 441 507 34,000  Level Atlanta Center
Thu 07:44:30 AM 36.7308 -80.4256 230° Southwest 452 520 34,000  Level Atlanta Center
Thu 07:45:30 AM 36.6508 -80.5431 230° Southwest 452 520 34,000  Level Atlanta Center
Thu 07:46:30 AM 36.5728 -80.6575 230° Southwest 440 506 34,000  Level Atlanta Center
Thu 07:47:30 AM 36.4925 -80.7772 230° Southwest 440 506 34,000  Level Atlanta Center
Thu 07:48:30 AM 36.4142 -80.8939 230° Southwest 440 506 34,000  Level Atlanta Center
Thu 07:49:30 AM 36.3439 -80.9972 230° Southwest 440 506 34,000  Level Atlanta Center
Thu 07:50:30 AM 36.2633 -81.1136 229° Southwest 440 506 34,000  Level Atlanta Center
Thu 07:51:30 AM 36.1844 -81.2269 229° Southwest 440 506 34,000  Level Atlanta Center
Thu 07:52:30 AM 36.1036 -81.3428 229° Southwest 445 512 34,000  Level Atlanta Center
Thu 07:53:30 AM 36.0228 -81.4586 229° Southwest 445 512 34,000  Level Atlanta Center
Thu 07:54:30 AM 35.9439 -81.5714 229° Southwest 440 506 34,000  Level Atlanta Center
Thu 07:55:30 AM 35.8647 -81.6864 230° Southwest 445 512 34,000  Level Atlanta Center
Thu 07:56:30 AM 35.7833 -81.8014 229° Southwest 445 512 34,000  Level Atlanta Center
Thu 07:57:30 AM 35.7039 -81.9111 228° Southwest 445 512 34,000  Level Atlanta Center
Thu 07:58:30 AM 35.6308 -82.0306 233° Southwest 438 504 34,000  Level Atlanta Center
Thu 07:59:30 AM 35.5661 -82.1622 239° Southwest 451 519 34,000  Level Atlanta Center
Thu 08:00:30 AM 35.4994 -82.3042 240° Southwest 451 519 34,000 -100 Level Atlanta Center
Thu 08:01:30 AM 35.4239 -82.4203 231° Southwest 441 507 33,800 -1,300 Descending Atlanta Center
Thu 08:02:30 AM 35.3269 -82.5189 220° Southwest 435 501 31,400 -1,900 Descending Atlanta Center
Thu 08:03:30 AM 35.2467 -82.6094 223° Southwest 450 518 30,000 -1,350 Descending Atlanta Center
Thu 08:04:30 AM 35.1561 -82.7050 221° Southwest 443 510 28,700 -1,300 Descending Atlanta Center
Thu 08:05:30 AM 35.0672 -82.8031 222° Southwest 436 502 27,400 -1,200 Descending Atlanta Center
Thu 08:06:30 AM 34.9806 -82.9006 223° Southwest 431 496 26,300 -1,100 Descending Atlanta Center
Thu 08:07:30 AM 34.8875 -82.9981 221° Southwest 425 489 25,200 -1,150 Descending Atlanta Center
Thu 08:08:30 AM 34.8050 -83.0900 222° Southwest 412 474 24,000 -600 Descending Atlanta Center
Thu 08:09:30 AM 34.7158 -83.1822 220° Southwest 417 480 24,000  Level Atlanta Center
Thu 08:10:30 AM 34.6289 -83.2764 222° Southwest 417 480 24,000  Level Atlanta Center
Thu 08:11:30 AM 34.5397 -83.3681 220° Southwest 422 486 24,000 -700 Level Atlanta Center
Thu 08:12:30 AM 34.4503 -83.4644 222° Southwest 422 486 22,600 -2,150 Descending Atlanta Center
Thu 08:13:30 AM 34.3653 -83.5556 222° Southwest 422 486 19,700 -2,850 Descending Atlanta Center
Thu 08:14:30 AM 34.2819 -83.6417 221° Southwest 410 472 16,900 -2,600 Descending Atlanta Center
Thu 08:15:30 AM 34.2031 -83.7272 222° Southwest 401 461 14,500 -1,450 Descending Atlanta Center
Thu 08:16:30 AM 34.1383 -83.7953 221° Southwest 363 418 14,000 -250 Descending Atlanta Center
Thu 08:17:30 AM 34.0781 -83.8583 221° Southwest 308 354 14,000 -360 Level Atlanta Center
Thu 08:18:10 AM 34.0333 -83.9167 227° Southwest 288 331 13,400 -957 Descending Atlanta TRACON
Thu 08:19:04 AM 33.9833 -83.9667 220° Southwest 281 323 12,500 -737 Descending Atlanta TRACON
Thu 08:20:04 AM 33.9167 -84.0333 220° Southwest 277 319 12,000 -250 Descending Atlanta TRACON
Thu 08:21:04 AM 33.8667 -84.0833 220° Southwest 279 321 12,000  Level Atlanta TRACON
Thu 08:22:04 AM 33.8000 -84.1333 212° Southwest 276 318 12,000  Level Atlanta TRACON
Thu 08:23:04 AM 33.7333 -84.1833 212° Southwest 276 318 12,000  Level Atlanta TRACON
Thu 08:24:04 AM 33.7333 -84.2833 270° West 260 299 12,000 -450 Level Atlanta TRACON
Thu 08:25:04 AM 33.7333 -84.3667 270° West 247 284 11,100 -1,381 Descending Atlanta TRACON
Thu 08:26:10 AM 33.7333 -84.4500 270° West 245 282 9,100 -1,810 Descending Atlanta TRACON
Thu 08:27:10 AM 33.7333 -84.5333 270° West 236 272 7,300 -1,789 Descending Atlanta TRACON
Thu 08:28:04 AM 33.7333 -84.6000 270° West 232 267 5,700 -1,150 Descending Atlanta TRACON
Thu 08:29:10 AM 33.7333 -84.6833 270° West 233 268 5,000 -333 Descending Atlanta TRACON
Thu 08:30:10 AM 33.7333 -84.7667 270° West 232 267 5,000  Level Atlanta TRACON
Thu 08:31:16 AM 33.7333 -84.8500 270° West 213 245 5,000  Level Atlanta TRACON
Thu 08:32:16 AM 33.7167 -84.9000 248° West 218 251 5,000  Level Atlanta TRACON
Thu 08:33:16 AM 33.6667 -84.9000 180° South 176 203 5,000  Level Atlanta TRACON
Thu 08:34:16 AM 33.6500 -84.8333 107° East 196 226 5,000  Level Atlanta TRACON
Thu 08:35:16 AM 33.6500 -84.7833 90° East 188 216 5,000  Level Atlanta TRACON
Thu 08:36:16 AM 33.6500 -84.7167 90° East 188 216 5,000 -158 Level Atlanta TRACON
Thu 08:37:10 AM 33.6500 -84.6667 90° East 190 219 4,700 -789 Descending Atlanta TRACON
Thu 08:38:10 AM 33.6500 -84.6000 90° East 214 246 3,500 -1,050 Descending Atlanta TRACON
Thu 08:39:10 AM 33.6500 -84.5333 90° East 146 168 2,600 -789 Descending Atlanta TRACON
Thu 08:40:04 AM 33.6500 -84.5000 90° East 125 144 2,000 -650 Descending Atlanta TRACON
Thu 08:41:10 AM 33.6500 -84.4500 90° East 131 151 1,300 -636 Descending Atlanta TRACON

Login

Don't have an account? Register now (free) for customized features, flight alerts, and more!